Seattle, Washington
Current Conditions -  °F | °C
As of 9:53 AM on Wednesday 26 Nov 2014 (Local Time) from KBFI Reporting Station
Overcast Overcast  
Wind Chill: 61°   Ceiling: 6000
Heat Index: 61°   Visibility: 10mi
Dew Point: 52°   Wind: 9mph
Humidity: 72%   Direction: 170°S
Pressure: 30.12"   Gusts: 21mph
Location:  47.6°N, 122.32°W
Report Text: KBFI 261753Z 17008G18KT 10SM SCT047 OVC060 16/11 A3012 RMK AO2 SLP199 T01610111 10161 20144 58000
Loading
Personal Weather Stations






























Interactive Weather Map New forecast layout! Learn more

10-Day Weather Forecast

Advertisements
Track Severe Weather on mobile